Time;durP1;ratioP1;P1;durP2;ratioP2;P2;SDS_P1;SDS_P2;PMS_P1;PMS_P2;Temp;Humidity;BMP_temperature;BMP_pressure;BME280_temperature;BME280_humidity;BME280_pressure;Samples;Min_cycle;Max_cycle;Signal;HPM_P1;HPM_P2
2023/06/11 00:00:19;;;;;;;17.65;11.60;;;;;;;-145.01;100.00;64805.59;5097108;28;20044;-65
2023/06/11 00:02:53;;;;;;;18.23;11.52;;;;;;;-145.01;100.00;64805.59;5093703;28;20100;-66
2023/06/11 00:05:22;;;;;;;22.92;11.50;;;;;;;-145.01;100.00;64805.59;5102113;28;20044;-67
2023/06/11 00:07:50;;;;;;;16.98;11.52;;;;;;;-145.01;100.00;64805.59;5099833;28;20149;-66
2023/06/11 00:10:17;;;;;;;20.90;11.60;;;;;;;-145.01;100.00;64805.59;5096934;28;20450;-66
2023/06/11 00:12:45;;;;;;;14.70;11.00;;;;;;;-145.01;100.00;64805.59;5090508;28;20052;-64
2023/06/11 00:15:12;;;;;;;17.20;11.43;;;;;;;-145.01;100.00;64805.59;5105010;28;20075;-66
2023/06/11 00:17:41;;;;;;;17.77;12.05;;;;;;;-145.01;100.00;64805.59;5102448;28;20473;-65
2023/06/11 00:20:11;;;;;;;19.83;11.90;;;;;;;-145.01;100.00;64805.59;5104338;28;20135;-64
2023/06/11 00:22:38;;;;;;;;;;;;;;;-145.01;100.00;64805.59;5101226;28;20116;-64
2023/06/11 00:25:09;;;;;;;;;;;;;;;-145.01;100.00;64805.59;5106624;28;20015;-65
2023/06/11 00:27:37;;;;;;;18.35;11.45;;;;;;;-145.01;100.00;64805.59;5096245;28;19950;-65
2023/06/11 00:30:06;;;;;;;17.08;11.20;;;;;;;-145.01;100.00;64805.59;5105334;28;20464;-64
2023/06/11 00:32:35;;;;;;;19.67;11.98;;;;;;;-145.01;100.00;64805.59;5104612;28;20104;-65
2023/06/11 00:35:06;;;;;;;17.95;12.13;;;;;;;-145.01;100.00;64805.59;5096909;28;20052;-65
2023/06/11 00:37:35;;;;;;;18.58;11.27;;;;;;;-145.01;100.00;64805.59;5101396;28;20094;-65
2023/06/11 00:40:03;;;;;;;17.20;11.43;;;;;;;-145.01;100.00;64805.59;5104246;28;20149;-65
2023/06/11 00:42:33;;;;;;;16.40;11.43;;;;;;;-145.01;100.00;64805.59;5097733;28;20495;-65
2023/06/11 00:45:03;;;;;;;19.75;11.75;;;;;;;-145.01;100.00;64805.59;5106937;28;20459;-65
2023/06/11 00:47:32;;;;;;;14.95;12.00;;;;;;;-145.01;100.00;64805.59;5103549;28;20044;-65
2023/06/11 00:50:02;;;;;;;17.50;11.98;;;;;;;-145.01;100.00;64805.59;5095736;28;20919;-65
2023/06/11 00:52:29;;;;;;;16.25;12.00;;;;;;;-145.01;100.00;64805.59;5096853;28;20036;-65
2023/06/11 00:54:58;;;;;;;18.77;11.98;;;;;;;-145.01;100.00;64805.59;5097698;28;20481;-65
2023/06/11 00:57:26;;;;;;;17.08;11.73;;;;;;;-145.01;100.00;64805.59;5097260;28;20034;-65
2023/06/11 00:59:53;;;;;;;19.48;11.57;;;;;;;-145.01;100.00;64805.59;5103882;28;20398;-65
2023/06/11 01:02:24;;;;;;;19.23;11.93;;;;;;;-145.01;100.00;64805.59;5099033;28;20035;-65
2023/06/11 01:04:53;;;;;;;18.88;12.85;;;;;;;-145.01;100.00;64805.59;5107127;28;20036;-65
2023/06/11 01:07:22;;;;;;;16.50;11.90;;;;;;;-145.01;100.00;64805.59;5102343;28;20398;-65
2023/06/11 01:09:50;;;;;;;17.42;12.10;;;;;;;-145.01;100.00;64805.59;5098323;28;20047;-65
2023/06/11 01:12:19;;;;;;;18.83;12.13;;;;;;;-145.01;100.00;64805.59;5094483;28;20055;-65
2023/06/11 01:14:47;;;;;;;19.35;11.65;;;;;;;-145.01;100.00;64805.59;5103234;28;20040;-65
2023/06/11 01:17:17;;;;;;;19.25;12.55;;;;;;;-145.01;100.00;64805.59;5095753;28;20421;-65
2023/06/11 01:19:54;;;;;;;17.35;11.98;;;;;;;-145.01;100.00;64805.59;5094433;28;20048;-65
2023/06/11 01:22:29;;;;;;;16.52;12.13;;;;;;;-145.01;100.00;64805.59;5100429;28;20047;-65
2023/06/11 01:25:07;;;;;;;17.25;12.70;;;;;;;-145.01;100.00;64805.59;5100839;28;20047;-65
2023/06/11 01:27:46;;;;;;;18.02;12.63;;;;;;;-145.01;100.00;64805.59;5096637;28;20036;-65
2023/06/11 01:30:17;;;;;;;17.60;13.02;;;;;;;-145.01;100.00;64805.59;5105067;28;20047;-65
2023/06/11 01:32:47;;;;;;;16.77;12.52;;;;;;;-145.01;100.00;64805.59;5096201;28;20051;-65
2023/06/11 01:35:16;;;;;;;18.08;13.30;;;;;;;-145.01;100.00;64805.59;5092648;28;20036;-65
2023/06/11 01:37:46;;;;;;;18.42;12.55;;;;;;;-145.01;100.00;64805.59;5103292;28;20040;-65
2023/06/11 01:40:15;;;;;;;22.98;12.52;;;;;;;-145.01;100.00;64805.59;5101761;28;20052;-65
2023/06/11 01:42:55;;;;;;;18.85;13.55;;;;;;;-145.01;100.00;64805.59;5102097;28;20390;-65
2023/06/11 01:45:23;;;;;;;22.50;12.98;;;;;;;-145.01;100.00;64805.59;5103453;28;20048;-65
2023/06/11 01:47:50;;;;;;;19.52;12.93;;;;;;;-145.01;100.00;64805.59;5115008;27;20070;-65
2023/06/11 01:50:18;;;;;;;19.58;12.80;;;;;;;-145.01;100.00;64805.59;5105434;28;20059;-65
2023/06/11 01:52:45;;;;;;;20.10;12.70;;;;;;;-145.01;100.00;64805.59;5102448;28;20054;-65
2023/06/11 01:55:13;;;;;;;19.27;12.80;;;;;;;-145.01;100.00;64805.59;5096682;28;20523;-65
2023/06/11 01:57:41;;;;;;;14.85;12.25;;;;;;;-145.01;100.00;64805.59;5093933;28;20143;-65
2023/06/11 02:00:11;;;;;;;22.65;13.27;;;;;;;-145.01;100.00;64805.59;5098858;28;20062;-66
2023/06/11 02:02:47;;;;;;;20.38;12.95;;;;;;;-145.01;100.00;64805.59;5101445;28;20052;-68
2023/06/11 02:05:16;;;;;;;21.08;13.88;;;;;;;-145.01;100.00;64805.59;5093244;28;20048;-65
2023/06/11 02:07:44;;;;;;;19.83;13.45;;;;;;;-145.01;100.00;64805.59;5103631;28;20040;-66
2023/06/11 02:10:11;;;;;;;17.60;13.00;;;;;;;-145.01;100.00;64805.59;5094209;28;20040;-65
2023/06/11 02:12:39;;;;;;;19.58;14.25;;;;;;;-145.01;100.00;64805.59;5104378;28;20042;-66
2023/06/11 02:15:08;;;;;;;20.20;14.43;;;;;;;-145.01;100.00;64805.59;5102478;28;20459;-65
2023/06/11 02:17:37;;;;;;;19.42;13.80;;;;;;;-145.01;100.00;64805.59;5103008;28;20072;-65
2023/06/11 02:20:06;;;;;;;19.27;13.18;;;;;;;-145.01;100.00;64805.59;5100330;28;20077;-65
2023/06/11 02:22:34;;;;;;;21.20;13.90;;;;;;;-145.01;100.00;64805.59;5095533;28;20044;-65
2023/06/11 02:25:02;;;;;;;23.27;13.43;;;;;;;-145.01;100.00;64805.59;5096065;28;20455;-65
2023/06/11 02:27:30;;;;;;;21.10;14.82;;;;;;;-145.01;100.00;64805.59;5089374;28;20054;-65
2023/06/11 02:29:59;;;;;;;20.23;13.73;;;;;;;-145.01;100.00;64805.59;5093579;28;20123;-65
2023/06/11 02:32:27;;;;;;;20.02;14.45;;;;;;;-145.01;100.00;64805.59;5103620;28;20554;-65
2023/06/11 02:34:58;;;;;;;26.50;16.10;;;;;;;-145.01;100.00;64805.59;5095015;28;20051;-65
2023/06/11 02:37:25;;;;;;;22.25;14.85;;;;;;;-145.01;100.00;64805.59;5099722;28;20615;-64
2023/06/11 02:39:53;;;;;;;23.80;16.08;;;;;;;-145.01;100.00;64805.59;5098765;28;20149;-65
2023/06/11 02:42:21;;;;;;;20.67;14.13;;;;;;;-145.01;100.00;64805.59;5100539;28;20622;-65
2023/06/11 02:44:49;;;;;;;24.60;14.85;;;;;;;-145.01;100.00;64805.59;5098420;28;20036;-65
2023/06/11 02:47:16;;;;;;;21.30;15.27;;;;;;;-145.01;100.00;64805.59;5098646;28;20503;-65
2023/06/11 02:49:46;;;;;;;23.73;14.65;;;;;;;-145.01;100.00;64805.59;5095221;28;20054;-65
2023/06/11 02:52:15;;;;;;;20.65;15.30;;;;;;;-145.01;100.00;64805.59;5096174;28;20083;-65
2023/06/11 02:54:42;;;;;;;23.52;15.00;;;;;;;-145.01;100.00;64805.59;5103672;28;20051;-65
2023/06/11 02:57:10;;;;;;;23.75;15.32;;;;;;;-145.01;100.00;64805.59;5088638;28;20073;-65
2023/06/11 02:59:38;;;;;;;22.90;14.55;;;;;;;-145.01;100.00;64805.59;5094230;28;20044;-65
2023/06/11 03:02:05;;;;;;;21.90;15.60;;;;;;;-145.01;100.00;64805.59;5095503;28;20054;-65
2023/06/11 03:04:33;;;;;;;21.73;15.05;;;;;;;-145.01;100.00;64805.59;5073335;28;20048;-65
2023/06/11 03:07:01;;;;;;;26.33;16.02;;;;;;;-145.01;100.00;64805.59;5099631;28;20039;-65
2023/06/11 03:09:33;;;;;;;27.63;16.48;;;;;;;-145.01;100.00;64805.59;5101993;28;20039;-65
2023/06/11 03:12:01;;;;;;;25.40;15.88;;;;;;;-145.01;100.00;64805.59;5092465;28;20079;-65
2023/06/11 03:14:31;;;;;;;20.98;15.95;;;;;;;-145.01;100.00;64805.59;5118992;27;20046;-64
2023/06/11 03:16:58;;;;;;;24.58;16.65;;;;;;;-145.01;100.00;64805.59;5102906;28;20043;-64
2023/06/11 03:19:30;;;;;;;26.50;16.77;;;;;;;-145.01;100.00;64805.59;5095741;28;20074;-64
2023/06/11 03:22:00;;;;;;;23.83;16.17;;;;;;;-145.01;100.00;64805.59;5093810;28;20092;-66
2023/06/11 03:24:28;;;;;;;25.67;17.38;;;;;;;-145.01;100.00;64805.59;5093186;28;20524;-64
2023/06/11 03:27:07;;;;;;;26.58;16.30;;;;;;;-145.01;100.00;64805.59;5096211;28;20097;-66
2023/06/11 03:29:35;;;;;;;29.48;17.77;;;;;;;-145.01;100.00;64805.59;5078588;28;20048;-64
2023/06/11 03:32:03;;;;;;;24.80;17.60;;;;;;;-145.01;100.00;64805.59;5095494;28;20114;-66
2023/06/11 03:34:30;;;;;;;26.30;17.08;;;;;;;-145.01;100.00;64805.59;5097701;28;20047;-65
2023/06/11 03:37:02;;;;;;;32.65;16.88;;;;;;;-145.01;100.00;64805.59;5098519;28;20043;-65
2023/06/11 03:39:30;;;;;;;26.48;17.17;;;;;;;-145.01;100.00;64805.59;5094456;28;20059;-65
2023/06/11 03:41:59;;;;;;;26.17;15.52;;;;;;;-145.01;100.00;64805.59;5094604;28;20138;-65
2023/06/11 03:44:30;;;;;;;31.88;17.20;;;;;;;-145.01;100.00;64805.59;5099115;28;20044;-66
2023/06/11 03:46:59;;;;;;;26.75;17.13;;;;;;;-145.01;100.00;64805.59;5103564;28;20161;-65
2023/06/11 03:49:26;;;;;;;25.23;16.73;;;;;;;-145.01;100.00;64805.59;5093962;28;20446;-65
2023/06/11 03:51:55;;;;;;;24.17;15.52;;;;;;;-145.01;100.00;64805.59;5098431;28;20062;-64
2023/06/11 03:54:22;;;;;;;26.63;16.00;;;;;;;-145.01;100.00;64805.59;5095998;28;20044;-65
2023/06/11 03:56:51;;;;;;;22.83;15.30;;;;;;;-145.01;100.00;64805.59;5096335;27;20401;-64
2023/06/11 03:59:19;;;;;;;24.77;15.38;;;;;;;-145.01;100.00;64805.59;5102262;28;20044;-65
2023/06/11 04:01:48;;;;;;;25.90;16.27;;;;;;;-145.01;100.00;64805.59;5102151;28;20490;-63
2023/06/11 04:04:15;;;;;;;27.50;17.00;;;;;;;-145.01;100.00;64805.59;5105504;28;20039;-64
2023/06/11 04:06:43;;;;;;;21.80;14.48;;;;;;;-145.01;100.00;64805.59;5099459;28;20130;-65
2023/06/11 04:09:12;;;;;;;23.05;14.82;;;;;;;-145.01;100.00;64805.59;5106399;28;20055;-65
2023/06/11 04:11:39;;;;;;;28.10;14.43;;;;;;;-145.01;100.00;64805.59;5105242;28;20050;-63
2023/06/11 04:14:07;;;;;;;29.10;15.00;;;;;;;-145.01;100.00;64805.59;5105220;28;20559;-65
2023/06/11 04:16:35;;;;;;;25.52;14.52;;;;;;;-145.01;100.00;64805.59;5097804;28;20083;-65
2023/06/11 04:19:04;;;;;;;29.38;15.65;;;;;;;-145.01;100.00;64805.59;5106792;28;20135;-65
2023/06/11 04:21:32;;;;;;;29.98;14.65;;;;;;;-145.01;100.00;64805.59;5099944;28;20055;-65
2023/06/11 04:24:00;;;;;;;27.27;14.00;;;;;;;-145.01;100.00;64805.59;5099922;28;20036;-65
2023/06/11 04:26:31;;;;;;;25.33;14.95;;;;;;;-145.01;100.00;64805.59;5101409;28;20060;-63
2023/06/11 04:29:01;;;;;;;24.90;15.30;;;;;;;-145.01;100.00;64805.59;5106451;28;20043;-65
2023/06/11 04:31:29;;;;;;;25.02;14.98;;;;;;;-145.01;100.00;64805.59;5093579;28;20068;-65
2023/06/11 04:34:02;;;;;;;26.75;15.05;;;;;;;-145.01;100.00;64805.59;5100520;28;20353;-65
2023/06/11 04:36:34;;;;;;;21.42;14.85;;;;;;;-145.01;100.00;64805.59;5100483;28;20039;-65
2023/06/11 04:39:03;;;;;;;;;;;;;;;-145.01;100.00;64805.59;5104269;28;20050;-63
2023/06/11 04:41:36;;;;;;;28.50;15.48;;;;;;;-145.01;100.00;64805.59;5102410;28;19920;-65
2023/06/11 04:44:04;;;;;;;28.67;14.93;;;;;;;-145.01;100.00;64805.59;5095578;28;20410;-65
2023/06/11 04:46:34;;;;;;;22.65;14.35;;;;;;;-145.01;100.00;64805.59;5102204;28;20535;-63
2023/06/11 04:49:06;;;;;;;32.50;15.20;;;;;;;-145.01;100.00;64805.59;5104737;28;20518;-65
2023/06/11 04:51:40;;;;;;;22.38;14.73;;;;;;;-145.01;100.00;64805.59;5093014;28;20040;-63
2023/06/11 04:54:09;;;;;;;24.20;14.82;;;;;;;-145.01;100.00;64805.59;5100187;28;20050;-65
2023/06/11 04:56:41;;;;;;;26.25;15.10;;;;;;;-145.01;100.00;64805.59;5097785;28;20052;-62
2023/06/11 04:59:10;;;;;;;23.40;15.02;;;;;;;-145.01;100.00;64805.59;5107312;28;20039;-63
2023/06/11 05:01:46;;;;;;;25.60;14.60;;;;;;;-145.01;100.00;64805.59;5103250;28;20082;-63
2023/06/11 05:04:15;;;;;;;25.85;15.35;;;;;;;-145.01;100.00;64805.59;5093278;28;20383;-63
2023/06/11 05:06:46;;;;;;;26.15;15.30;;;;;;;-145.01;100.00;64805.59;5104017;28;20564;-63
2023/06/11 05:09:17;;;;;;;26.77;14.52;;;;;;;-145.01;100.00;64805.59;5097779;28;20054;-63
2023/06/11 05:11:47;;;;;;;27.13;14.65;;;;;;;-145.01;100.00;64805.59;5098062;28;20053;-63
2023/06/11 05:14:17;;;;;;;24.13;14.57;;;;;;;-145.01;100.00;64805.59;5100510;28;20040;-63
2023/06/11 05:16:46;;;;;;;24.67;14.52;;;;;;;-145.01;100.00;64805.59;5102184;28;20139;-63
2023/06/11 05:19:14;;;;;;;27.52;15.73;;;;;;;-145.01;100.00;64805.59;5104876;28;20130;-63
2023/06/11 05:21:44;;;;;;;28.42;16.10;;;;;;;-145.01;100.00;64805.59;5079080;28;20147;-63
2023/06/11 05:24:19;;;;;;;29.63;15.88;;;;;;;-145.01;100.00;64805.59;5099594;28;20047;-63
2023/06/11 05:26:47;;;;;;;31.20;15.80;;;;;;;-145.01;100.00;64805.59;5100241;28;20108;-63
2023/06/11 05:29:15;;;;;;;27.93;15.20;;;;;;;-145.01;100.00;64805.59;5103164;28;20482;-63
2023/06/11 05:31:42;;;;;;;27.25;15.02;;;;;;;-145.01;100.00;64805.59;5096462;28;20304;-63
2023/06/11 05:34:10;;;;;;;30.08;16.05;;;;;;;-145.01;100.00;64805.59;5098630;28;20119;-63
2023/06/11 05:36:38;;;;;;;30.52;16.02;;;;;;;-145.01;100.00;64805.59;5101053;28;20037;-63
2023/06/11 05:39:07;;;;;;;27.88;16.52;;;;;;;-145.01;100.00;64805.59;5097600;28;20043;-64
2023/06/11 05:41:35;;;;;;;28.13;16.83;;;;;;;-145.01;100.00;64805.59;5091383;28;20044;-63
2023/06/11 05:44:04;;;;;;;37.40;17.67;;;;;;;-145.01;100.00;64805.59;5102103;28;20050;-63
2023/06/11 05:46:32;;;;;;;24.98;16.88;;;;;;;-145.01;100.00;64805.59;5104163;28;20291;-63
2023/06/11 05:49:00;;;;;;;29.30;16.77;;;;;;;-145.01;100.00;64805.59;5103056;28;20085;-63
2023/06/11 05:51:27;;;;;;;26.20;17.43;;;;;;;-145.01;100.00;64805.59;5096231;28;20056;-63
2023/06/11 05:53:55;;;;;;;33.80;18.50;;;;;;;-145.01;100.00;64805.59;5099059;28;20304;-63
2023/06/11 05:56:25;;;;;;;31.00;18.05;;;;;;;-145.01;100.00;64805.59;5102031;28;20050;-64
2023/06/11 05:58:52;;;;;;;30.40;17.90;;;;;;;-145.01;100.00;64805.59;5100744;28;20109;-63
2023/06/11 06:01:21;;;;;;;28.25;17.60;;;;;;;-145.01;100.00;64805.59;5099171;28;20135;-63
2023/06/11 06:03:50;;;;;;;33.38;17.50;;;;;;;-145.01;100.00;64805.59;5094492;28;20039;-63
2023/06/11 06:06:17;;;;;;;21.25;15.32;;;;;;;-145.01;100.00;64805.59;5102078;28;20038;-63
2023/06/11 06:08:45;;;;;;;31.23;15.93;;;;;;;-145.01;100.00;64805.59;5088133;28;20050;-63
2023/06/11 06:11:12;;;;;;;36.28;17.05;;;;;;;-145.01;100.00;64805.59;5094934;28;20039;-63
2023/06/11 06:13:43;;;;;;;31.15;15.40;;;;;;;-145.01;100.00;64805.59;5089435;28;20047;-63
2023/06/11 06:16:13;;;;;;;26.27;15.80;;;;;;;-145.01;100.00;64805.59;5099169;28;20083;-63
2023/06/11 06:18:44;;;;;;;28.00;14.77;;;;;;;-145.01;100.00;64805.59;5093941;28;20032;-63
2023/06/11 06:21:11;;;;;;;24.70;14.75;;;;;;;-145.01;100.00;64805.59;5098657;28;20088;-63
2023/06/11 06:23:45;;;;;;;32.65;15.70;;;;;;;-145.01;100.00;64805.59;5097637;28;20413;-63
2023/06/11 06:26:16;;;;;;;21.60;14.45;;;;;;;-145.01;100.00;64805.59;5102281;28;20134;-63
2023/06/11 06:28:45;;;;;;;2.63;2.15;;;;;;;-145.01;100.00;64805.59;5089754;28;20051;-63
2023/06/11 06:31:13;;;;;;;0.08;0.08;;;;;;;-145.01;100.00;64805.59;5102180;28;20497;-63
2023/06/11 06:33:43;;;;;;;0.10;0.10;;;;;;;-145.01;100.00;64805.59;5116120;27;20126;-63
2023/06/11 06:36:11;;;;;;;0.00;0.00;;;;;;;-145.01;100.00;64805.59;5101889;28;20062;-63
2023/06/11 06:38:40;;;;;;;0.00;0.00;;;;;;;-145.01;100.00;64805.59;5099862;28;20452;-64
2023/06/11 06:41:08;;;;;;;;;;;;;;;-145.01;100.00;64805.59;5097507;28;20047;-64
2023/06/11 06:43:36;;;;;;;0.00;0.00;;;;;;;-145.01;100.00;64805.59;5101503;28;20018;-64
2023/06/11 06:46:13;;;;;;;0.00;0.00;;;;;;;-145.01;100.00;64805.59;5099504;28;20180;-64
2023/06/11 06:48:41;;;;;;;0.10;0.10;;;;;;;-145.01;100.00;64805.59;5094628;28;20113;-63
2023/06/11 06:51:09;;;;;;;0.00;0.00;;;;;;;-145.01;100.00;64805.59;5095212;28;20130;-62
2023/06/11 06:53:40;;;;;;;0.00;0.00;;;;;;;-145.01;100.00;64805.59;5090002;28;20667;-62
2023/06/11 06:56:08;;;;;;;0.10;0.10;;;;;;;-145.01;100.00;64805.59;5098153;28;20138;-65
2023/06/11 06:58:36;;;;;;;0.00;0.00;;;;;;;-145.01;100.00;64805.59;5098980;28;20075;-62
2023/06/11 07:01:03;;;;;;;0.00;0.00;;;;;;;-145.01;100.00;64805.59;5099825;28;20435;-62
2023/06/11 07:03:33;;;;;;;0.00;0.00;;;;;;;-145.01;100.00;64805.59;5096017;28;20040;-63
2023/06/11 07:06:01;;;;;;;0.00;0.00;;;;;;;-145.01;100.00;64805.59;5096586;28;20044;-62
2023/06/11 07:08:28;;;;;;;0.00;0.00;;;;;;;-145.01;100.00;64805.59;5102886;28;20125;-62
2023/06/11 07:10:56;;;;;;;0.00;0.00;;;;;;;-145.01;100.00;64805.59;5103285;28;20047;-62
2023/06/11 07:13:37;;;;;;;0.00;0.00;;;;;;;-145.01;100.00;64805.59;5095354;28;20124;-65
2023/06/11 07:16:06;;;;;;;0.00;0.00;;;;;;;-145.01;100.00;64805.59;5097090;28;20616;-64
2023/06/11 07:18:38;;;;;;;0.00;0.00;;;;;;;-145.01;100.00;64805.59;5095117;28;20494;-62
2023/06/11 07:21:06;;;;;;;0.13;0.13;;;;;;;-145.01;100.00;64805.59;5100269;28;22021;-64
2023/06/11 07:23:33;;;;;;;0.13;0.10;;;;;;;-145.01;100.00;64805.59;5090233;28;20052;-65
2023/06/11 07:26:03;;;;;;;0.00;0.00;;;;;;;-145.01;100.00;64805.59;5103713;28;20039;-64
2023/06/11 07:28:30;;;;;;;0.00;0.00;;;;;;;-145.01;100.00;64805.59;5090118;28;20044;-62
2023/06/11 07:30:59;;;;;;;0.00;0.00;;;;;;;-145.01;100.00;64805.59;5107261;28;20074;-65
2023/06/11 07:33:27;;;;;;;0.00;0.00;;;;;;;-145.01;100.00;64805.59;5100864;28;20043;-63
2023/06/11 07:35:59;;;;;;;0.10;0.08;;;;;;;-145.01;100.00;64805.59;5100013;28;20055;-63
2023/06/11 07:38:29;;;;;;;0.00;0.00;;;;;;;-145.01;100.00;64805.59;5109903;28;20062;-63
2023/06/11 07:40:57;;;;;;;0.00;0.00;;;;;;;-145.01;100.00;64805.59;5109101;28;20092;-63
2023/06/11 07:43:25;;;;;;;0.68;0.68;;;;;;;-145.01;100.00;64805.59;5103335;28;20250;-63
2023/06/11 07:45:53;;;;;;;0.00;0.00;;;;;;;-145.01;100.00;64805.59;5106548;28;20073;-63
2023/06/11 07:48:21;;;;;;;0.05;0.05;;;;;;;-145.01;100.00;64805.59;5108348;28;20544;-63
2023/06/11 07:50:52;;;;;;;0.10;0.00;;;;;;;-145.01;100.00;64805.59;5109585;28;20031;-63
2023/06/11 07:53:24;;;;;;;0.00;0.00;;;;;;;-145.01;100.00;64805.59;5099421;28;20063;-63
2023/06/11 07:55:56;;;;;;;0.00;0.00;;;;;;;-145.01;100.00;64805.59;5108671;28;20062;-63
2023/06/11 07:58:24;;;;;;;0.10;0.00;;;;;;;-145.01;100.00;64805.59;5102093;28;20040;-63
2023/06/11 08:00:52;;;;;;;0.20;0.10;;;;;;;-145.01;100.00;64805.59;5106398;28;20039;-64
2023/06/11 08:03:20;;;;;;;0.00;0.00;;;;;;;-145.01;100.00;64805.59;5107196;28;20035;-64
2023/06/11 08:05:47;;;;;;;0.00;0.00;;;;;;;-145.01;100.00;64805.59;5107461;28;20487;-64
2023/06/11 08:08:15;;;;;;;0.10;0.10;;;;;;;-145.01;100.00;64805.59;5106497;27;20043;-64
2023/06/11 08:10:50;;;;;;;0.00;0.00;;;;;;;-145.01;100.00;64805.59;5110498;28;20047;-64
2023/06/11 08:13:21;;;;;;;0.00;0.00;;;;;;;-145.01;100.00;64805.59;5105138;27;20126;-64
2023/06/11 08:15:48;;;;;;;0.10;0.00;;;;;;;-145.01;100.00;64805.59;5109217;27;20530;-64
2023/06/11 08:18:16;;;;;;;0.00;0.00;;;;;;;-145.01;100.00;64805.59;5106091;28;20047;-64
2023/06/11 08:20:43;;;;;;;0.15;0.00;;;;;;;-145.01;100.00;64805.59;5105285;28;20044;-64
2023/06/11 08:23:12;;;;;;;0.10;0.10;;;;;;;-145.01;100.00;64805.59;5098867;27;20035;-64
2023/06/11 08:25:40;;;;;;;0.00;0.00;;;;;;;-145.01;100.00;64805.59;5104409;27;20047;-63
2023/06/11 08:28:09;;;;;;;0.00;0.00;;;;;;;-145.01;100.00;64805.59;5108934;28;20043;-64
2023/06/11 08:30:37;;;;;;;0.00;0.00;;;;;;;-145.01;100.00;64805.59;5105567;28;20394;-63
2023/06/11 08:33:04;;;;;;;0.00;0.00;;;;;;;-145.01;100.00;64805.59;5106384;27;20043;-64
2023/06/11 08:35:32;;;;;;;0.00;0.00;;;;;;;-145.01;100.00;64805.59;5103839;27;20059;-64
2023/06/11 08:37:59;;;;;;;0.10;0.00;;;;;;;-145.01;100.00;64805.59;5098078;28;20070;-63
2023/06/11 08:40:27;;;;;;;0.00;0.00;;;;;;;-145.01;100.00;64805.59;5104181;28;20076;-63
2023/06/11 08:42:54;;;;;;;0.00;0.00;;;;;;;-145.01;100.00;64805.59;5097470;28;20042;-63
2023/06/11 08:45:23;;;;;;;0.00;0.00;;;;;;;-145.01;100.00;64805.59;5098778;28;20075;-63
2023/06/11 08:47:51;;;;;;;0.00;0.00;;;;;;;-145.01;100.00;64805.59;5104660;28;20036;-64
2023/06/11 08:50:20;;;;;;;0.00;0.00;;;;;;;-145.01;100.00;64805.59;5101285;27;20053;-63
2023/06/11 08:52:48;;;;;;;0.00;0.00;;;;;;;-145.01;100.00;64805.59;5096114;27;20143;-63
2023/06/11 08:55:16;;;;;;;0.00;0.00;;;;;;;-145.01;100.00;64805.59;5094978;28;20055;-63
2023/06/11 08:57:44;;;;;;;0.03;0.03;;;;;;;-145.01;100.00;64805.59;5099619;28;20044;-63
2023/06/11 09:00:13;;;;;;;0.00;0.00;;;;;;;-145.01;100.00;64805.59;5102182;28;20046;-64
2023/06/11 09:02:42;;;;;;;0.00;0.00;;;;;;;-145.01;100.00;64805.59;5098783;28;20048;-65
2023/06/11 09:05:11;;;;;;;0.32;0.10;;;;;;;-145.01;100.00;64805.59;5099459;28;20035;-63
2023/06/11 09:07:39;;;;;;;0.17;0.08;;;;;;;-145.01;100.00;64805.59;5104093;28;20043;-62
2023/06/11 09:10:07;;;;;;;0.00;0.00;;;;;;;-145.01;100.00;64805.59;5099447;28;20079;-64
2023/06/11 09:12:35;;;;;;;0.05;0.05;;;;;;;-145.01;100.00;64805.59;5096909;28;20433;-64
2023/06/11 09:15:04;;;;;;;0.08;0.08;;;;;;;-145.01;100.00;64805.59;5103645;28;20055;-64
2023/06/11 09:17:35;;;;;;;0.00;0.00;;;;;;;-145.01;100.00;64805.59;5097280;28;20048;-64
2023/06/11 09:20:06;;;;;;;0.00;0.00;;;;;;;-145.01;100.00;64805.59;5098999;28;20044;-64
2023/06/11 09:22:34;;;;;;;0.05;0.05;;;;;;;-145.01;100.00;64805.59;5093467;28;20058;-64
2023/06/11 09:25:06;;;;;;;0.00;0.00;;;;;;;-145.01;100.00;64805.59;5095955;28;20066;-64
2023/06/11 09:27:34;;;;;;;0.00;0.00;;;;;;;-145.01;100.00;64805.59;5093744;28;20040;-64
2023/06/11 09:30:09;;;;;;;0.00;0.00;;;;;;;-145.01;100.00;64805.59;5106149;28;20051;-64
2023/06/11 09:32:40;;;;;;;0.08;0.05;;;;;;;-145.01;100.00;64805.59;5093918;28;20044;-64
2023/06/11 09:35:10;;;;;;;0.00;0.00;;;;;;;-145.01;100.00;64805.59;5101542;28;20059;-64
2023/06/11 09:37:44;;;;;;;0.00;0.00;;;;;;;-145.01;100.00;64805.59;5098096;28;20358;-64
2023/06/11 09:40:13;;;;;;;0.00;0.00;;;;;;;-145.01;100.00;64805.59;5098867;28;20174;-64
2023/06/11 09:42:43;;;;;;;0.00;0.00;;;;;;;-145.01;100.00;64805.59;5099729;28;20054;-63
2023/06/11 09:45:16;;;;;;;0.03;0.00;;;;;;;-145.01;100.00;64805.59;5101216;28;20391;-62
2023/06/11 09:47:44;;;;;;;0.00;0.00;;;;;;;-145.01;100.00;64805.59;5099872;28;20067;-64
2023/06/11 09:50:14;;;;;;;0.00;0.00;;;;;;;-145.01;100.00;64805.59;5104577;28;20048;-62
2023/06/11 09:52:42;;;;;;;0.00;0.00;;;;;;;-145.01;100.00;64805.59;5096773;28;20127;-62
2023/06/11 09:55:09;;;;;;;0.00;0.00;;;;;;;-145.01;100.00;64805.59;5083059;28;20040;-64
2023/06/11 09:57:38;;;;;;;0.10;0.10;;;;;;;-145.01;100.00;64805.59;5095601;28;20052;-64
2023/06/11 10:00:09;;;;;;;0.00;0.00;;;;;;;-145.01;100.00;64805.59;5099555;28;20610;-64
2023/06/11 10:02:38;;;;;;;0.00;0.00;;;;;;;-145.01;100.00;64805.59;5097045;28;20034;-64
2023/06/11 10:05:07;;;;;;;0.00;0.00;;;;;;;-145.01;100.00;64805.59;5101753;28;20046;-64
2023/06/11 10:07:40;;;;;;;0.00;0.00;;;;;;;-145.01;100.00;64805.59;5099127;28;20039;-64
2023/06/11 10:10:09;;;;;;;0.00;0.00;;;;;;;-145.01;100.00;64805.59;5097413;28;20174;-64
2023/06/11 10:12:37;;;;;;;0.10;0.10;;;;;;;-145.01;100.00;64805.59;5094496;28;20089;-63
2023/06/11 10:15:05;;;;;;;0.00;0.00;;;;;;;-145.01;100.00;64805.59;5096888;28;20060;-62
2023/06/11 10:17:33;;;;;;;0.00;0.00;;;;;;;-145.01;100.00;64805.59;5097097;28;20048;-63
2023/06/11 10:20:00;;;;;;;0.10;0.10;;;;;;;-145.01;100.00;64805.59;5099795;28;20040;-63
2023/06/11 10:22:34;;;;;;;0.17;0.03;;;;;;;-145.01;100.00;64805.59;5095702;28;20534;-63
2023/06/11 10:25:03;;;;;;;0.10;0.08;;;;;;;-145.01;100.00;64805.59;5099340;28;20499;-63
2023/06/11 10:27:37;;;;;;;0.00;0.00;;;;;;;-145.01;100.00;64805.59;5096990;28;20071;-63
2023/06/11 10:30:06;;;;;;;0.00;0.00;;;;;;;-145.01;100.00;64805.59;5103082;28;20395;-63
2023/06/11 10:32:34;;;;;;;0.00;0.00;;;;;;;-145.01;100.00;64805.59;5099195;28;20040;-63
2023/06/11 10:35:04;;;;;;;0.08;0.08;;;;;;;-145.01;100.00;64805.59;5100191;28;20374;-63
2023/06/11 10:37:32;;;;;;;0.10;0.10;;;;;;;-145.01;100.00;64805.59;5097660;28;20138;-63
2023/06/11 10:39:59;;;;;;;0.00;0.00;;;;;;;-145.01;100.00;64805.59;5095896;28;20094;-63
2023/06/11 10:42:29;;;;;;;0.43;0.00;;;;;;;-145.01;100.00;64805.59;5094200;28;20098;-63
2023/06/11 10:44:59;;;;;;;0.00;0.00;;;;;;;-145.01;100.00;64805.59;5099802;28;20034;-63
2023/06/11 10:47:28;;;;;;;0.00;0.00;;;;;;;-145.01;100.00;64805.59;5098586;28;20039;-63
2023/06/11 10:50:06;;;;;;;0.00;0.00;;;;;;;-145.01;100.00;64805.59;5099398;28;20135;-64
2023/06/11 10:52:44;;;;;;;0.08;0.00;;;;;;;-145.01;100.00;64805.59;5097710;28;20064;-64
2023/06/11 10:55:13;;;;;;;0.00;0.00;;;;;;;-145.01;100.00;64805.59;5103684;28;20070;-64
2023/06/11 10:57:42;;;;;;;0.00;0.00;;;;;;;-145.01;100.00;64805.59;5098278;28;20067;-64
2023/06/11 11:00:10;;;;;;;0.00;0.00;;;;;;;-145.01;100.00;64805.59;5101845;28;20272;-63
2023/06/11 11:02:38;;;;;;;0.00;0.00;;;;;;;-145.01;100.00;64805.59;5102143;28;20143;-63
2023/06/11 11:05:09;;;;;;;0.00;0.00;;;;;;;-145.01;100.00;64805.59;5094743;28;20828;-63
2023/06/11 11:07:36;;;;;;;0.00;0.00;;;;;;;-145.01;100.00;64805.59;5103543;28;20048;-64
2023/06/11 11:10:05;;;;;;;0.20;0.08;;;;;;;-145.01;100.00;64805.59;5104334;28;20465;-64